createdAt,value
2022-09-20T00:00:49.022Z,9.70
2022-09-20T00:03:17.328Z,9.70
2022-09-20T00:05:46.189Z,9.70
2022-09-20T00:08:16.224Z,9.60
2022-09-20T00:10:43.509Z,9.60
2022-09-20T00:13:13.013Z,9.60
2022-09-20T00:15:44.906Z,9.50
2022-09-20T00:18:12.944Z,9.60
2022-09-20T00:20:45.524Z,9.60
2022-09-20T00:23:13.969Z,9.60
2022-09-20T00:25:41.601Z,9.60
2022-09-20T00:28:10.467Z,9.50
2022-09-20T00:30:38.759Z,9.50
2022-09-20T00:33:05.716Z,9.60
2022-09-20T00:35:33.439Z,9.50
2022-09-20T00:38:00.585Z,9.50
2022-09-20T00:40:30.241Z,9.60
2022-09-20T00:42:57.079Z,9.50
2022-09-20T00:45:25.989Z,9.50
2022-09-20T00:47:57.418Z,9.50
2022-09-20T00:50:33.378Z,9.50
2022-09-20T00:53:05.485Z,9.50
2022-09-20T00:55:35.960Z,9.50
2022-09-20T00:58:03.283Z,9.50
2022-09-20T01:00:30.712Z,9.40
2022-09-20T01:03:01.268Z,9.50
2022-09-20T01:05:28.733Z,9.50
2022-09-20T01:07:56.805Z,9.40
2022-09-20T01:10:53.724Z,9.50
2022-09-20T01:13:20.603Z,9.50
2022-09-20T01:15:49.659Z,9.50
2022-09-20T01:18:18.258Z,9.50
2022-09-20T01:20:47.420Z,9.50
2022-09-20T01:23:32.288Z,9.50
2022-09-20T01:26:47.099Z,9.50
2022-09-20T01:29:26.091Z,9.50
2022-09-20T01:31:56.464Z,9.60
2022-09-20T01:34:29.948Z,9.60
2022-09-20T01:37:05.063Z,9.60
2022-09-20T01:39:39.958Z,9.70
2022-09-20T01:42:09.693Z,9.60
2022-09-20T01:44:44.464Z,9.70
2022-09-20T01:47:20.763Z,9.70
2022-09-20T01:49:59.896Z,9.70
2022-09-20T01:52:58.490Z,9.70
2022-09-20T01:56:02.354Z,9.70
2022-09-20T01:59:24.583Z,9.80
2022-09-20T02:02:08.935Z,9.80
2022-09-20T02:05:04.409Z,9.70
2022-09-20T02:08:06.582Z,9.80
2022-09-20T02:11:03.716Z,9.90
2022-09-20T02:13:32.139Z,9.90
2022-09-20T02:16:32.499Z,9.90
2022-09-20T02:19:36.802Z,9.90
2022-09-20T02:22:18.411Z,9.90
2022-09-20T02:24:53.342Z,9.90
2022-09-20T02:27:26.871Z,10.00
2022-09-20T02:30:08.899Z,10.10
2022-09-20T02:32:58.518Z,10.10
2022-09-20T02:35:39.567Z,10.10
2022-09-20T02:38:15.525Z,10.10
2022-09-20T02:41:00.972Z,10.20
2022-09-20T02:43:34.544Z,10.20
2022-09-20T02:46:07.616Z,10.20
2022-09-20T02:48:43.000Z,10.20
2022-09-20T02:51:20.211Z,10.20
2022-09-20T02:53:58.648Z,10.20
2022-09-20T02:56:33.913Z,10.20
2022-09-20T02:59:08.085Z,10.20
2022-09-20T03:01:47.911Z,10.20
2022-09-20T03:04:25.741Z,10.20
2022-09-20T03:07:01.263Z,10.20
2022-09-20T03:09:35.391Z,10.20
2022-09-20T03:12:17.962Z,10.20
2022-09-20T03:14:53.429Z,10.20
2022-09-20T03:17:29.117Z,10.20
2022-09-20T03:20:18.117Z,10.20
2022-09-20T03:22:59.301Z,10.20
2022-09-20T03:25:50.741Z,10.10
2022-09-20T03:28:43.145Z,10.10
2022-09-20T03:31:23.734Z,10.10
2022-09-20T03:33:58.506Z,10.20
2022-09-20T03:36:40.315Z,10.10
2022-09-20T03:39:44.055Z,10.10
2022-09-20T03:42:18.291Z,10.00
2022-09-20T03:45:13.235Z,10.00
2022-09-20T03:48:11.628Z,10.00
2022-09-20T03:50:58.522Z,10.00
2022-09-20T03:53:53.429Z,10.00
2022-09-20T03:56:52.322Z,10.00
2022-09-20T03:59:31.342Z,10.00
2022-09-20T04:02:21.115Z,10.00
2022-09-20T04:04:55.147Z,10.10
2022-09-20T04:07:33.548Z,10.00
2022-09-20T04:10:16.771Z,10.00
2022-09-20T04:13:01.333Z,10.00
2022-09-20T04:15:38.817Z,10.10
2022-09-20T04:18:23.390Z,10.10
2022-09-20T04:21:05.151Z,10.10
2022-09-20T04:23:41.785Z,10.10
2022-09-20T04:26:13.139Z,10.10
2022-09-20T04:28:51.112Z,10.10
2022-09-20T04:31:32.844Z,10.10
2022-09-20T04:34:19.688Z,10.10
2022-09-20T04:37:08.761Z,10.10
2022-09-20T04:39:43.856Z,10.00
2022-09-20T04:43:02.368Z,10.10
2022-09-20T04:46:02.314Z,10.00
2022-09-20T04:49:01.660Z,10.00
2022-09-20T04:52:14.708Z,10.00
2022-09-20T04:55:10.446Z,10.10
2022-09-20T04:58:06.459Z,10.10
2022-09-20T05:00:58.047Z,10.00
2022-09-20T05:03:50.937Z,10.00
2022-09-20T05:06:48.593Z,9.90
2022-09-20T05:09:45.030Z,9.90
2022-09-20T05:12:34.170Z,9.90
2022-09-20T05:15:17.652Z,9.90
2022-09-20T05:18:10.494Z,9.90
2022-09-20T05:20:59.982Z,10.00
2022-09-20T05:23:48.922Z,10.00
2022-09-20T05:26:26.045Z,9.90
2022-09-20T05:29:01.922Z,9.90
2022-09-20T05:31:38.375Z,10.00
2022-09-20T05:34:19.900Z,9.90
2022-09-20T05:37:00.122Z,10.00
2022-09-20T05:39:38.043Z,10.00
2022-09-20T05:42:20.725Z,9.90
2022-09-20T05:45:03.861Z,9.90
2022-09-20T05:47:43.735Z,10.00
2022-09-20T05:50:35.080Z,9.90
2022-09-20T05:53:30.568Z,10.00
2022-09-20T05:56:07.482Z,10.00
2022-09-20T05:58:52.720Z,10.20
2022-09-20T06:01:26.004Z,10.10
2022-09-20T06:03:59.227Z,10.10
2022-09-20T06:06:32.883Z,10.10
2022-09-20T06:09:30.781Z,10.20
2022-09-20T06:12:18.398Z,10.40
2022-09-20T06:14:55.205Z,10.40
2022-09-20T06:17:47.725Z,10.40
2022-09-20T06:20:24.790Z,10.40
2022-09-20T06:23:01.067Z,10.40
2022-09-20T06:25:34.332Z,10.40
2022-09-20T06:28:07.159Z,10.40
2022-09-20T06:30:42.902Z,10.40
2022-09-20T06:33:17.228Z,10.40
2022-09-20T06:35:49.664Z,10.50
2022-09-20T06:38:58.802Z,10.50
2022-09-20T06:41:33.679Z,10.50
2022-09-20T06:44:07.217Z,10.50
2022-09-20T06:46:36.855Z,10.50
2022-09-20T06:49:05.288Z,10.70
2022-09-20T06:51:39.171Z,10.50
2022-09-20T06:54:17.141Z,10.40
2022-09-20T06:56:53.224Z,10.50
2022-09-20T06:59:25.436Z,10.60
2022-09-20T07:01:52.888Z,10.60
2022-09-20T07:04:22.820Z,10.60
2022-09-20T07:07:00.536Z,10.60
2022-09-20T07:09:30.914Z,10.60
2022-09-20T07:12:00.127Z,10.60
2022-09-20T07:14:28.568Z,10.60
2022-09-20T07:16:56.256Z,10.60
2022-09-20T07:19:29.141Z,10.70
2022-09-20T07:21:58.924Z,10.60
2022-09-20T07:24:29.064Z,10.70
2022-09-20T07:27:04.680Z,10.70
2022-09-20T07:29:36.044Z,10.70
2022-09-20T07:32:09.071Z,10.70
2022-09-20T07:34:37.475Z,10.70
2022-09-20T07:37:11.578Z,10.80
2022-09-20T07:39:42.497Z,10.70
2022-09-20T07:42:15.735Z,10.70
2022-09-20T07:44:47.342Z,10.80
2022-09-20T07:47:18.408Z,10.80
2022-09-20T07:49:47.674Z,10.80
2022-09-20T07:52:18.410Z,10.90
2022-09-20T07:54:46.555Z,10.90
2022-09-20T07:57:17.763Z,11.00
2022-09-20T07:59:45.711Z,10.90
2022-09-20T08:02:17.355Z,10.90
2022-09-20T08:04:46.155Z,10.80
2022-09-20T08:07:14.846Z,10.80
2022-09-20T08:09:44.686Z,10.80
2022-09-20T08:15:05.664Z,10.90
2022-09-20T08:17:43.044Z,11.10
2022-09-20T08:20:15.729Z,11.10
2022-09-20T08:23:06.367Z,11.10
2022-09-20T08:25:35.485Z,11.20
2022-09-20T08:28:10.488Z,11.30
2022-09-20T08:30:43.018Z,11.40
2022-09-20T08:33:15.816Z,11.50
2022-09-20T08:35:43.846Z,11.60
2022-09-20T08:41:05.086Z,11.40
2022-09-20T08:43:37.974Z,11.40
2022-09-20T08:46:15.157Z,11.50
2022-09-20T08:48:43.246Z,11.60
2022-09-20T08:51:22.578Z,11.60
2022-09-20T08:53:52.971Z,11.70
2022-09-20T08:56:20.800Z,11.70
2022-09-20T08:58:47.744Z,11.70
2022-09-20T09:01:21.208Z,11.70
2022-09-20T09:03:51.261Z,11.90
2022-09-20T09:06:21.441Z,11.90
2022-09-20T09:08:51.961Z,11.90
2022-09-20T09:11:21.019Z,12.00
2022-09-20T09:13:52.988Z,12.10
2022-09-20T09:16:28.637Z,12.10
2022-09-20T09:19:33.327Z,12.10
2022-09-20T09:22:03.031Z,12.10
2022-09-20T09:24:33.446Z,12.10
2022-09-20T09:27:13.082Z,12.20
2022-09-20T09:29:49.948Z,12.10
2022-09-20T09:32:24.977Z,12.20
2022-09-20T09:34:52.150Z,12.20
2022-09-20T09:37:28.734Z,12.20
2022-09-20T09:40:09.533Z,12.30
2022-09-20T09:42:36.442Z,12.40
2022-09-20T09:45:24.054Z,12.60
2022-09-20T09:47:52.474Z,12.50
2022-09-20T09:50:24.164Z,12.60
2022-09-20T09:53:02.927Z,12.70
2022-09-20T09:55:53.447Z,12.80
2022-09-20T09:58:28.740Z,12.90
2022-09-20T10:00:59.937Z,12.90
2022-09-20T10:03:48.792Z,12.90
2022-09-20T10:06:23.544Z,13.00
2022-09-20T10:09:01.495Z,13.10
2022-09-20T10:11:37.787Z,13.20
2022-09-20T10:14:20.703Z,13.30
2022-09-20T10:17:01.013Z,13.30
2022-09-20T10:19:46.502Z,13.30
2022-09-20T10:22:35.098Z,13.30
2022-09-20T10:25:15.494Z,13.30
2022-09-20T10:27:54.132Z,13.60
2022-09-20T10:30:24.283Z,14.00
2022-09-20T10:33:02.928Z,14.10
2022-09-20T10:35:52.421Z,14.00
2022-09-20T10:38:26.184Z,14.30
2022-09-20T10:41:32.210Z,14.80
2022-09-20T10:44:09.096Z,15.30
2022-09-20T10:46:51.633Z,15.50
2022-09-20T10:49:26.121Z,15.30
2022-09-20T10:52:08.529Z,15.40
2022-09-20T10:54:47.675Z,15.40
2022-09-20T10:57:29.253Z,15.70
2022-09-20T11:00:03.344Z,15.70
2022-09-20T11:02:44.339Z,15.70
2022-09-20T11:05:28.176Z,15.50
2022-09-20T11:08:05.824Z,15.80
2022-09-20T11:10:37.154Z,15.60
2022-09-20T11:13:08.592Z,15.60
2022-09-20T11:15:42.353Z,15.70
2022-09-20T11:18:14.723Z,15.60
2022-09-20T11:20:45.389Z,15.50
2022-09-20T11:23:19.181Z,15.30
2022-09-20T11:25:51.974Z,15.40
2022-09-20T11:28:25.892Z,15.60
2022-09-20T11:31:00.816Z,15.80
2022-09-20T11:33:29.551Z,16.00
2022-09-20T11:36:00.715Z,16.00
2022-09-20T11:38:37.644Z,16.10
2022-09-20T11:41:11.748Z,16.20
2022-09-20T11:43:44.320Z,16.50
2022-09-20T11:46:18.865Z,16.50
2022-09-20T11:48:49.062Z,16.30
2022-09-20T11:51:42.724Z,16.20
2022-09-20T11:55:01.265Z,15.80
2022-09-20T11:57:28.462Z,15.40
2022-09-20T11:59:58.444Z,15.10
2022-09-20T12:02:35.542Z,14.90
2022-09-20T12:05:05.579Z,14.90
2022-09-20T12:07:36.186Z,14.80
2022-09-20T12:10:10.239Z,14.70
2022-09-20T12:12:41.500Z,14.60
2022-09-20T12:15:24.563Z,14.50
2022-09-20T12:18:24.045Z,14.50
2022-09-20T12:20:59.454Z,14.30
2022-09-20T12:24:16.893Z,14.10
2022-09-20T12:26:47.099Z,13.80
2022-09-20T12:29:51.029Z,13.70
2022-09-20T12:32:52.516Z,13.60
2022-09-20T12:35:56.603Z,13.60
2022-09-20T12:38:49.479Z,13.60
2022-09-20T12:41:27.928Z,13.80
2022-09-20T12:44:03.863Z,14.50
2022-09-20T12:46:38.667Z,15.00
2022-09-20T12:50:02.438Z,14.90
2022-09-20T12:52:50.353Z,14.60
2022-09-20T12:55:45.978Z,14.70
2022-09-20T12:58:48.867Z,15.50
2022-09-20T13:01:39.856Z,16.50
2022-09-20T13:04:53.603Z,16.80
2022-09-20T13:07:34.785Z,16.90
2022-09-20T13:10:07.033Z,17.30
2022-09-20T13:12:39.317Z,17.50
2022-09-20T13:15:07.627Z,18.10
2022-09-20T13:17:37.202Z,18.40
2022-09-20T13:20:04.759Z,18.70
2022-09-20T13:22:37.024Z,18.90
2022-09-20T13:25:07.465Z,18.50
2022-09-20T13:27:37.297Z,18.30
2022-09-20T13:30:20.138Z,18.80
2022-09-20T13:32:49.576Z,19.30
2022-09-20T13:35:21.967Z,18.90
2022-09-20T13:37:53.782Z,18.80
2022-09-20T13:40:23.432Z,18.80
2022-09-20T13:43:07.167Z,18.70
2022-09-20T13:45:42.760Z,18.70
2022-09-20T13:48:10.889Z,19.10
2022-09-20T13:50:45.773Z,19.50
2022-09-20T13:53:33.268Z,18.90
2022-09-20T13:56:11.994Z,19.20
2022-09-20T13:58:38.847Z,19.30
2022-09-20T14:01:17.276Z,19.40
2022-09-20T14:03:45.745Z,19.80
2022-09-20T14:06:15.112Z,20.00
2022-09-20T14:08:45.275Z,20.30
2022-09-20T14:11:16.723Z,20.50
2022-09-20T14:13:47.693Z,20.20
2022-09-20T14:16:16.484Z,20.00
2022-09-20T14:18:47.996Z,20.20
2022-09-20T14:21:21.747Z,20.50
2022-09-20T14:23:53.299Z,20.40
2022-09-20T14:26:26.088Z,19.70
2022-09-20T14:28:53.286Z,19.70
2022-09-20T14:31:23.666Z,19.90
2022-09-20T14:33:55.308Z,20.30
2022-09-20T14:36:24.842Z,20.20
2022-09-20T14:38:54.578Z,20.40
2022-09-20T14:41:29.279Z,20.90
2022-09-20T14:43:58.753Z,21.10
2022-09-20T14:46:33.216Z,21.20
2022-09-20T14:49:21.106Z,21.60
2022-09-20T14:51:48.312Z,21.60
2022-09-20T14:54:27.922Z,21.20
2022-09-20T14:56:58.013Z,20.20
2022-09-20T14:59:26.992Z,19.40
2022-09-20T15:01:59.236Z,18.60
2022-09-20T15:04:28.543Z,17.80
2022-09-20T15:06:56.863Z,17.20
2022-09-20T15:09:23.841Z,16.80
2022-09-20T15:12:02.023Z,16.40
2022-09-20T15:14:30.344Z,16.30
2022-09-20T15:17:00.909Z,16.10
2022-09-20T15:19:30.408Z,15.90
2022-09-20T15:21:57.421Z,15.80
2022-09-20T15:24:24.608Z,15.80
2022-09-20T15:26:52.204Z,15.70
2022-09-20T15:29:19.096Z,15.70
2022-09-20T15:31:48.790Z,15.70
2022-09-20T15:34:17.160Z,15.60
2022-09-20T15:36:46.097Z,15.70
2022-09-20T15:39:12.855Z,15.70
2022-09-20T15:41:40.818Z,15.70
2022-09-20T15:44:08.087Z,15.60
2022-09-20T15:46:35.691Z,15.60
2022-09-20T15:49:05.104Z,15.60
2022-09-20T15:51:32.380Z,15.60
2022-09-20T15:54:02.240Z,15.60
2022-09-20T15:56:30.708Z,15.60
2022-09-20T15:58:59.552Z,15.50
2022-09-20T16:01:28.593Z,15.40
2022-09-20T16:03:56.342Z,15.30
2022-09-20T16:06:24.161Z,15.20
2022-09-20T16:08:51.465Z,15.10
2022-09-20T16:11:22.935Z,14.90
2022-09-20T16:13:53.387Z,14.90
2022-09-20T16:16:21.461Z,14.70
2022-09-20T16:19:07.424Z,14.60
2022-09-20T16:21:36.810Z,14.40
2022-09-20T16:24:05.698Z,14.20
2022-09-20T16:26:35.006Z,14.10
2022-09-20T16:29:04.602Z,13.90
2022-09-20T16:31:35.267Z,13.80
2022-09-20T16:34:03.672Z,13.80
2022-09-20T16:36:31.441Z,13.80
2022-09-20T16:38:58.744Z,13.80
2022-09-20T16:41:27.975Z,13.90
2022-09-20T16:43:56.864Z,13.90
2022-09-20T16:46:27.116Z,14.00
2022-09-20T16:48:55.073Z,14.00
2022-09-20T16:51:28.828Z,14.00
2022-09-20T16:53:56.411Z,14.00
2022-09-20T16:56:24.907Z,14.00
2022-09-20T16:58:52.717Z,14.00
2022-09-20T17:01:21.350Z,14.00
2022-09-20T17:03:48.872Z,13.90
2022-09-20T17:06:16.710Z,13.90
2022-09-20T17:08:44.853Z,13.90
2022-09-20T17:11:14.640Z,13.80
2022-09-20T17:13:43.189Z,13.80
2022-09-20T17:16:12.190Z,13.70
2022-09-20T17:18:42.155Z,13.70
2022-09-20T17:21:11.001Z,13.70
2022-09-20T17:23:38.137Z,13.70
2022-09-20T17:26:07.483Z,13.60
2022-09-20T17:28:35.940Z,13.50
2022-09-20T17:31:02.878Z,13.50
2022-09-20T17:33:32.801Z,13.50
2022-09-20T17:36:03.420Z,13.40
2022-09-20T17:38:33.456Z,13.40
2022-09-20T17:41:02.218Z,13.30
2022-09-20T17:43:31.159Z,13.30
2022-09-20T17:46:08.319Z,13.30
2022-09-20T17:48:35.548Z,13.30
2022-09-20T17:51:07.229Z,13.30
2022-09-20T17:53:37.143Z,13.20
2022-09-20T17:56:04.597Z,13.20
2022-09-20T17:58:34.581Z,13.20
2022-09-20T18:01:10.995Z,13.10
2022-09-20T18:03:41.334Z,13.10
2022-09-20T18:06:14.987Z,13.10
2022-09-20T18:08:45.243Z,13.00
2022-09-20T18:11:12.091Z,13.10
2022-09-20T18:13:39.230Z,13.10
2022-09-20T18:16:09.671Z,13.10
2022-09-20T18:18:36.960Z,13.10
2022-09-20T18:21:14.502Z,13.00
2022-09-20T18:23:42.304Z,12.90
2022-09-20T18:26:31.322Z,12.80
2022-09-20T18:29:01.598Z,12.80
2022-09-20T18:31:32.263Z,12.80
2022-09-20T18:34:00.679Z,12.90
2022-09-20T18:36:29.950Z,12.80
2022-09-20T18:38:57.809Z,12.80
2022-09-20T18:41:26.198Z,12.80
2022-09-20T18:43:54.332Z,12.80
2022-09-20T18:46:24.933Z,12.70
2022-09-20T18:48:52.790Z,12.60
2022-09-20T18:51:20.228Z,12.60
2022-09-20T18:53:48.530Z,12.60
2022-09-20T18:56:24.609Z,12.50
2022-09-20T18:58:53.217Z,12.50
2022-09-20T19:01:34.570Z,12.40
2022-09-20T19:04:09.647Z,12.40
2022-09-20T19:06:41.671Z,12.30
2022-09-20T19:09:18.363Z,12.30
2022-09-20T19:11:52.411Z,12.20
2022-09-20T19:14:26.882Z,12.10
2022-09-20T19:16:59.227Z,12.10
2022-09-20T19:19:38.178Z,12.00
2022-09-20T19:22:17.002Z,12.00
2022-09-20T19:25:01.844Z,12.00
2022-09-20T19:27:29.704Z,11.90
2022-09-20T19:29:57.063Z,11.90
2022-09-20T19:32:26.202Z,11.90
2022-09-20T19:35:01.514Z,11.80
2022-09-20T19:37:36.941Z,11.70
2022-09-20T19:40:31.124Z,11.60
2022-09-20T19:43:14.708Z,11.60
2022-09-20T19:45:50.429Z,11.60
2022-09-20T19:48:22.062Z,11.50
2022-09-20T19:50:52.078Z,11.50
2022-09-20T19:53:22.464Z,11.40
2022-09-20T19:55:54.671Z,11.30
2022-09-20T19:58:22.712Z,11.30
2022-09-20T20:00:49.869Z,11.30
2022-09-20T20:03:17.346Z,11.40
2022-09-20T20:05:52.601Z,11.30
2022-09-20T20:08:27.800Z,11.40
2022-09-20T20:11:06.733Z,11.40
2022-09-20T20:13:59.700Z,11.40
2022-09-20T20:16:34.835Z,11.30
2022-09-20T20:19:13.141Z,11.30
2022-09-20T20:21:49.951Z,11.30
2022-09-20T20:24:27.620Z,11.20
2022-09-20T20:26:55.934Z,11.20
2022-09-20T20:29:22.731Z,11.20
2022-09-20T20:31:49.572Z,11.20
2022-09-20T20:34:17.831Z,11.20
2022-09-20T20:36:44.821Z,11.20
2022-09-20T20:39:12.490Z,11.20
2022-09-20T20:41:40.572Z,11.20
2022-09-20T20:44:09.792Z,11.10
2022-09-20T20:46:37.090Z,11.10
2022-09-20T20:49:05.113Z,11.20
2022-09-20T20:51:33.053Z,11.10
2022-09-20T20:54:00.030Z,11.10
2022-09-20T20:56:29.707Z,11.10
2022-09-20T20:59:00.634Z,11.00
2022-09-20T21:01:30.807Z,11.00
2022-09-20T21:03:59.023Z,10.90
2022-09-20T21:06:27.742Z,10.90
2022-09-20T21:08:54.889Z,10.80
2022-09-20T21:11:26.010Z,10.80
2022-09-20T21:13:54.564Z,10.80
2022-09-20T21:16:23.222Z,10.80
2022-09-20T21:18:52.518Z,10.80
2022-09-20T21:21:21.878Z,10.80
2022-09-20T21:23:50.365Z,10.70
2022-09-20T21:26:18.251Z,10.80
2022-09-20T21:28:49.911Z,10.80
2022-09-20T21:31:17.389Z,10.80
2022-09-20T21:33:45.005Z,10.70
2022-09-20T21:36:14.818Z,10.70
2022-09-20T21:38:42.921Z,10.70
2022-09-20T21:41:11.988Z,10.70
2022-09-20T21:43:43.493Z,10.70
2022-09-20T21:46:12.211Z,10.70
2022-09-20T21:48:39.725Z,10.70
2022-09-20T21:51:09.099Z,10.60
2022-09-20T21:53:38.696Z,10.60
2022-09-20T21:56:07.718Z,10.50
2022-09-20T21:58:35.524Z,10.50
2022-09-20T22:01:04.861Z,10.50
2022-09-20T22:03:34.480Z,10.50
2022-09-20T22:06:06.807Z,10.50
2022-09-20T22:08:33.978Z,10.40
2022-09-20T22:11:03.587Z,10.40
2022-09-20T22:13:31.050Z,10.40
2022-09-20T22:16:04.908Z,10.30
2022-09-20T22:18:35.486Z,10.40
2022-09-20T22:21:04.384Z,10.30
2022-09-20T22:23:31.544Z,10.30
2022-09-20T22:25:59.951Z,10.30
2022-09-20T22:28:28.744Z,10.20
2022-09-20T22:30:55.695Z,10.20
2022-09-20T22:33:22.704Z,10.20
2022-09-20T22:35:49.478Z,10.10
2022-09-20T22:38:16.404Z,10.10
2022-09-20T22:40:52.862Z,10.10
2022-09-20T22:43:20.332Z,10.20
2022-09-20T22:45:48.674Z,10.20
2022-09-20T22:48:15.842Z,10.10
2022-09-20T22:50:42.910Z,10.10
2022-09-20T22:53:09.758Z,10.10
2022-09-20T22:55:36.710Z,10.10
2022-09-20T22:58:04.546Z,10.10
2022-09-20T23:00:31.884Z,10.20
2022-09-20T23:03:00.409Z,10.10
2022-09-20T23:05:27.936Z,10.00
2022-09-20T23:07:55.038Z,10.10
2022-09-20T23:10:21.891Z,10.00
2022-09-20T23:12:52.893Z,10.00
2022-09-20T23:15:19.724Z,9.90
2022-09-20T23:17:46.920Z,9.80
2022-09-20T23:20:16.470Z,9.90
2022-09-20T23:22:43.575Z,9.80
2022-09-20T23:25:10.390Z,9.80
2022-09-20T23:27:37.551Z,9.80
2022-09-20T23:30:05.988Z,9.80
2022-09-20T23:32:33.201Z,9.80
2022-09-20T23:34:59.976Z,9.80
2022-09-20T23:37:28.571Z,9.80
2022-09-20T23:39:55.368Z,9.80
2022-09-20T23:42:22.690Z,9.80
2022-09-20T23:44:49.562Z,9.80
2022-09-20T23:47:16.860Z,9.80
2022-09-20T23:49:43.814Z,9.80
2022-09-20T23:52:10.915Z,9.80
2022-09-20T23:54:38.990Z,9.70
2022-09-20T23:57:05.919Z,9.70
2022-09-20T23:59:33.148Z,9.70
